Costa Neoriviera — IBDU — position and weather

sailwx.info

Track history (hours):
 
Tides and Currents Weather Stations Pressure Air Temp Water Temp Dewpoint Dewpoint Depression Visibility Wind Speed Wind Dir Waves Ship Positions

Costa Neoriviera

Last reported at 2018-May-19 17:54 UTC. Time now 2018-May-23 11:01 UTC.
Position N 37°12' E 025°49'.

Length 216 m; draft 7 m.

Type: Passenger vessel. MMSI: 247325300.

Date/timePositionNaut miles runAvg speedWind from/ knotsBaromVisibWave heightAir tempDewpointWater temp
2018-May-19 17:54N 37°12' E 025°49'614.6
2018-May-19 17:30N 37°13' E 025°42'814.9
2018-May-19 16:59N 37°15' E 025°33'714.8
2018-May-19 16:30N 37°17' E 025°24'714.5
2018-May-19 16:00N 37°19' E 025°16'713.8
2018-May-19 15:31N 37°23' E 025°08'612.2
2018-May-19 15:00N 37°28' E 025°12'611.4
2018-May-19 14:31N 37°28' E 025°19'0 0.3
2018-May-19 13:59N 37°28' E 025°19'0 0.0
2018-May-19 13:25N 37°28' E 025°19'0 0.0
2018-May-19 13:00N 37°28' E 025°19'0 0.0
2018-May-19 12:30N 37°28' E 025°19'0 0.0
2018-May-19 11:59N 37°28' E 025°19'0 0.0
2018-May-19 11:29N 37°28' E 025°19'0 0.0
2018-May-19 10:59N 37°28' E 025°19'0 0.0
2018-May-19 10:29N 37°28' E 025°19'0 0.0
2018-May-19 09:59N 37°28' E 025°19'0 0.0
2018-May-19 09:29N 37°28' E 025°19'0 0.0
2018-May-19 08:59N 37°28' E 025°19'0 0.0
2018-May-19 08:29N 37°28' E 025°19'0 0.0
2018-May-19 07:59N 37°28' E 025°19'0 0.0
2018-May-19 07:30N 37°28' E 025°19'0 0.0
2018-May-19 06:57N 37°28' E 025°19'0 0.0
2018-May-19 06:27N 37°28' E 025°19'0 0.0
2018-May-19 06:00N 37°28' E 025°19'0 0.0
2018-May-19 05:30N 37°28' E 025°19'0 0.0
2018-May-19 05:00N 37°28' E 025°19'0 0.0
2018-May-19 04:25N 37°28' E 025°19'0 0.0
2018-May-19 03:58N 37°28' E 025°19'0 0.0
2018-May-19 03:28N 37°28' E 025°19'1 2.5
2018-May-19 03:00N 37°28' E 025°18'510.5
2018-May-19 02:30N 37°28' E 025°11'510.2
2018-May-19 02:00N 37°24' E 025°07'5 9.8
2018-May-19 01:28N 37°19' E 025°04'612.3
2018-May-19 01:00N 37°18' E 024°57'612.5
2018-May-19 00:30N 37°18' E 024°49'4712.2
2018-May-18 20:40N 37°06' E 023°52'1611.9
2018-May-18 19:18N 37°05' E 023°31'412.2
2018-May-18 18:58N 37°05' E 023°26'612.0
2018-May-18 18:30N 37°06' E 023°20'375 7.5
2018-May-16 16:43N 36°13' E 015°37'418.4
2018-May-16 16:30N 36°11' E 015°32'918.3
2018-May-16 16:00N 36°08' E 015°22'1318.2
2018-May-16 15:18N 36°04' E 015°07'518.1
2018-May-16 15:00N 36°04' E 015°00'1017.7
2018-May-16 14:28N 36°02' E 014°49'818.0
2018-May-16 14:01N 35°59' E 014°39'815.1
2018-May-16 13:29N 35°54' E 014°32'1 0.1
2018-May-16 05:18N 35°54' E 014°32'6 7.1
2018-May-16 04:25N 36°01' E 014°31'1015.1
2018-May-16 03:43N 36°07' E 014°21'315.2
2018-May-16 03:29N 36°09' E 014°17'814.9
2018-May-16 02:59N 36°14' E 014°10'1014.7
2018-May-16 02:16N 36°19' E 013°59'1014.4
2018-May-16 01:34N 36°25' E 013°48'313.4
2018-May-16 01:19N 36°28' E 013°47'517.4
2018-May-16 01:00N 36°31' E 013°41'1018.3
2018-May-16 00:27N 36°37' E 013°32'818.2
2018-May-16 00:00N 36°42' E 013°24'54017.2
2018-May-14 16:41N 43°09' E 005°12'317.2
2018-May-14 16:30N 43°12' E 005°10'815.1
2018-May-14 16:00N 43°19' E 005°15'4 0.5
2018-May-14 06:51N 43°21' E 005°20'0 0.0
2018-May-14 06:18N 43°21' E 005°20'0 0.0
2018-May-14 05:53N 43°21' E 005°20'0 0.4
2018-May-14 05:30N 43°21' E 005°20'2 4.9
2018-May-14 05:00N 43°20' E 005°16'611.2
2018-May-14 04:30N 43°16' E 005°11'16812.4
2018-May-13 14:56N 43°06' E 009°01'614.5
2018-May-13 14:31N 43°06' E 009°10'714.7
2018-May-13 14:00N 43°07' E 009°20'714.7
2018-May-13 13:30N 43°08' E 009°30'814.4
2018-May-13 12:59N 43°03' E 009°38'2915.8
2018-May-13 11:10N 42°35' E 009°48'33017.1
2018-May-12 15:50N 38°41' E 014°53'618.2
2018-May-12 15:30N 38°36' E 014°59'816.2
2018-May-12 15:00N 38°29' E 015°03'4 7.7
2018-May-12 14:27N 38°28' E 014°58'0 0.0
2018-May-12 13:53N 38°28' E 014°58'0 0.0
2018-May-12 13:29N 38°28' E 014°58'0 0.0
2018-May-12 13:00N 38°28' E 014°58'0 0.0
2018-May-12 12:29N 38°28' E 014°58'0 0.0
2018-May-12 11:56N 38°28' E 014°58'0 0.0
2018-May-12 11:30N 38°28' E 014°58'0 0.0
2018-May-12 10:50N 38°28' E 014°58'0 0.0
2018-May-12 10:28N 38°28' E 014°58'0 0.1
2018-May-12 09:58N 38°28' E 014°58'0 0.0
2018-May-12 09:24N 38°28' E 014°58'0 0.1
2018-May-12 08:59N 38°28' E 014°58'0 0.0
2018-May-12 08:30N 38°28' E 014°58'0 0.0
2018-May-12 08:00N 38°28' E 014°58'0 0.0
2018-May-12 07:29N 38°28' E 014°58'0 0.0
2018-May-12 06:56N 38°28' E 014°58'0 0.0
2018-May-12 06:27N 38°28' E 014°58'0 0.0
2018-May-12 06:00N 38°28' E 014°58'0 0.1
2018-May-12 05:30N 38°28' E 014°58'1 2.8
2018-May-12 05:00N 38°28' E 014°60'5 9.9
2018-May-12 04:30N 38°27' E 015°06'1014.1
2018-May-12 03:48N 38°24' E 015°18'412.7
2018-May-12 03:30N 38°23' E 015°23'612.8
2018-May-12 03:00N 38°22' E 015°31'612.9
2018-May-12 02:30N 38°20' E 015°39'5 7.2
2018-May-12 01:50N 38°15' E 015°41'413.1
2018-May-12 01:30N 38°12' E 015°37'510.8
2018-May-12 01:00N 38°07' E 015°36'4 9.0
2018-May-12 00:30N 38°03' E 015°35'510.0
2018-May-12 00:00N 37°58' E 015°36'611.2
2018-May-11 23:29N 37°54' E 015°42'611.7
2018-May-11 22:59N 37°52' E 015°49'  
Track history (hours):
 
Tides and Currents Weather Stations Pressure Air Temp Water Temp Dewpoint Dewpoint Depression Visibility Wind Speed Wind Dir Waves Ship Positions

Costa Neoriviera

Last reported at 2018-May-19 17:54 UTC. Time now 2018-May-23 11:01 UTC.
Position N 37°12' E 025°49'.

Length 216 m; draft 7 m.

Type: Passenger vessel. MMSI: 247325300.

Date/timePositionNaut miles runAvg speedWind from/ knotsBaromVisibWave heightAir tempDewpointWater temp
2018-May-19 17:54N 37°12' E 025°49'614.6
2018-May-19 17:30N 37°13' E 025°42'814.9
2018-May-19 16:59N 37°15' E 025°33'714.8
2018-May-19 16:30N 37°17' E 025°24'714.5
2018-May-19 16:00N 37°19' E 025°16'713.8
2018-May-19 15:31N 37°23' E 025°08'612.2
2018-May-19 15:00N 37°28' E 025°12'611.4
2018-May-19 14:31N 37°28' E 025°19'0 0.3
2018-May-19 13:59N 37°28' E 025°19'0 0.0
2018-May-19 13:25N 37°28' E 025°19'0 0.0
2018-May-19 13:00N 37°28' E 025°19'0 0.0
2018-May-19 12:30N 37°28' E 025°19'0 0.0
2018-May-19 11:59N 37°28' E 025°19'0 0.0
2018-May-19 11:29N 37°28' E 025°19'0 0.0
2018-May-19 10:59N 37°28' E 025°19'0 0.0
2018-May-19 10:29N 37°28' E 025°19'0 0.0
2018-May-19 09:59N 37°28' E 025°19'0 0.0
2018-May-19 09:29N 37°28' E 025°19'0 0.0
2018-May-19 08:59N 37°28' E 025°19'0 0.0
2018-May-19 08:29N 37°28' E 025°19'0 0.0
2018-May-19 07:59N 37°28' E 025°19'0 0.0
2018-May-19 07:30N 37°28' E 025°19'0 0.0
2018-May-19 06:57N 37°28' E 025°19'0 0.0
2018-May-19 06:27N 37°28' E 025°19'0 0.0
2018-May-19 06:00N 37°28' E 025°19'0 0.0
2018-May-19 05:30N 37°28' E 025°19'0 0.0
2018-May-19 05:00N 37°28' E 025°19'0 0.0
2018-May-19 04:25N 37°28' E 025°19'0 0.0
2018-May-19 03:58N 37°28' E 025°19'0 0.0
2018-May-19 03:28N 37°28' E 025°19'1 2.5
2018-May-19 03:00N 37°28' E 025°18'510.5
2018-May-19 02:30N 37°28' E 025°11'510.2
2018-May-19 02:00N 37°24' E 025°07'5 9.8
2018-May-19 01:28N 37°19' E 025°04'612.3
2018-May-19 01:00N 37°18' E 024°57'612.5
2018-May-19 00:30N 37°18' E 024°49'4712.2
2018-May-18 20:40N 37°06' E 023°52'1611.9
2018-May-18 19:18N 37°05' E 023°31'412.2
2018-May-18 18:58N 37°05' E 023°26'612.0
2018-May-18 18:30N 37°06' E 023°20'375 7.5
2018-May-16 16:43N 36°13' E 015°37'418.4
2018-May-16 16:30N 36°11' E 015°32'918.3
2018-May-16 16:00N 36°08' E 015°22'1318.2
2018-May-16 15:18N 36°04' E 015°07'518.1
2018-May-16 15:00N 36°04' E 015°00'1017.7
2018-May-16 14:28N 36°02' E 014°49'818.0
2018-May-16 14:01N 35°59' E 014°39'815.1
2018-May-16 13:29N 35°54' E 014°32'1 0.1
2018-May-16 05:18N 35°54' E 014°32'6 7.1
2018-May-16 04:25N 36°01' E 014°31'1015.1
2018-May-16 03:43N 36°07' E 014°21'315.2
2018-May-16 03:29N 36°09' E 014°17'814.9
2018-May-16 02:59N 36°14' E 014°10'1014.7
2018-May-16 02:16N 36°19' E 013°59'1014.4
2018-May-16 01:34N 36°25' E 013°48'313.4
2018-May-16 01:19N 36°28' E 013°47'517.4
2018-May-16 01:00N 36°31' E 013°41'1018.3
2018-May-16 00:27N 36°37' E 013°32'818.2
2018-May-16 00:00N 36°42' E 013°24'54017.2
2018-May-14 16:41N 43°09' E 005°12'317.2
2018-May-14 16:30N 43°12' E 005°10'815.1
2018-May-14 16:00N 43°19' E 005°15'4 0.5
2018-May-14 06:51N 43°21' E 005°20'0 0.0
2018-May-14 06:18N 43°21' E 005°20'0 0.0
2018-May-14 05:53N 43°21' E 005°20'0 0.4
2018-May-14 05:30N 43°21' E 005°20'2 4.9
2018-May-14 05:00N 43°20' E 005°16'611.2
2018-May-14 04:30N 43°16' E 005°11'16812.4
2018-May-13 14:56N 43°06' E 009°01'614.5
2018-May-13 14:31N 43°06' E 009°10'714.7
2018-May-13 14:00N 43°07' E 009°20'714.7
2018-May-13 13:30N 43°08' E 009°30'814.4
2018-May-13 12:59N 43°03' E 009°38'2915.8
2018-May-13 11:10N 42°35' E 009°48'33017.1
2018-May-12 15:50N 38°41' E 014°53'618.2
2018-May-12 15:30N 38°36' E 014°59'816.2
2018-May-12 15:00N 38°29' E 015°03'4 7.7
2018-May-12 14:27N 38°28' E 014°58'0 0.0
2018-May-12 13:53N 38°28' E 014°58'0 0.0
2018-May-12 13:29N 38°28' E 014°58'0 0.0
2018-May-12 13:00N 38°28' E 014°58'0 0.0
2018-May-12 12:29N 38°28' E 014°58'0 0.0
2018-May-12 11:56N 38°28' E 014°58'0 0.0
2018-May-12 11:30N 38°28' E 014°58'0 0.0
2018-May-12 10:50N 38°28' E 014°58'0 0.0
2018-May-12 10:28N 38°28' E 014°58'0 0.1
2018-May-12 09:58N 38°28' E 014°58'0 0.0
2018-May-12 09:24N 38°28' E 014°58'0 0.1
2018-May-12 08:59N 38°28' E 014°58'0 0.0
2018-May-12 08:30N 38°28' E 014°58'0 0.0
2018-May-12 08:00N 38°28' E 014°58'0 0.0
2018-May-12 07:29N 38°28' E 014°58'0 0.0
2018-May-12 06:56N 38°28' E 014°58'0 0.0
2018-May-12 06:27N 38°28' E 014°58'0 0.0
2018-May-12 06:00N 38°28' E 014°58'0 0.1
2018-May-12 05:30N 38°28' E 014°58'1 2.8
2018-May-12 05:00N 38°28' E 014°60'5 9.9
2018-May-12 04:30N 38°27' E 015°06'1014.1
2018-May-12 03:48N 38°24' E 015°18'412.7
2018-May-12 03:30N 38°23' E 015°23'612.8
2018-May-12 03:00N 38°22' E 015°31'612.9
2018-May-12 02:30N 38°20' E 015°39'5 7.2
2018-May-12 01:50N 38°15' E 015°41'413.1
2018-May-12 01:30N 38°12' E 015°37'510.8
2018-May-12 01:00N 38°07' E 015°36'4 9.0
2018-May-12 00:30N 38°03' E 015°35'510.0
2018-May-12 00:00N 37°58' E 015°36'611.2
2018-May-11 23:29N 37°54' E 015°42'611.7
2018-May-11 22:59N 37°52' E 015°49'  

Dump ship's entire track history